Time;durP1;ratioP1;P1;durP2;ratioP2;P2;SDS_P1;SDS_P2;PMS_P1;PMS_P2;Temp;Humidity;BMP_temperature;BMP_pressure;BME280_temperature;BME280_humidity;BME280_pressure;Samples;Min_cycle;Max_cycle;Signal;HPM_P1;HPM_P2
2021/07/14 00:02:06;;;;;;;16.15;10.23;;;20.90;83.70;;;;;;4991592;28;20068;-92
2021/07/14 00:04:33;;;;;;;16.13;11.40;;;20.80;83.60;;;;;;4992672;28;20026;-93
2021/07/14 00:06:59;;;;;;;14.60;10.18;;;20.80;83.70;;;;;;4991739;28;20030;-91
2021/07/14 00:09:24;;;;;;;13.73;9.48;;;20.80;83.70;;;;;;4992990;28;20544;-92
2021/07/14 00:11:57;;;;;;;13.20;8.40;;;20.80;83.60;;;;;;4992551;28;20065;-92
2021/07/14 00:14:35;;;;;;;15.60;10.57;;;20.80;83.60;;;;;;4991163;28;20481;-92
2021/07/14 00:22:30;;;;;;;12.80;9.20;;;20.80;83.60;;;;;;4992487;28;20643;-92
2021/07/14 00:24:56;;;;;;;13.43;9.70;;;20.80;83.60;;;;;;4992144;28;20481;-92
2021/07/14 00:27:23;;;;;;;14.23;10.13;;;20.80;83.60;;;;;;4991408;28;20028;-92
2021/07/14 00:29:52;;;;;;;13.27;9.85;;;20.80;83.60;;;;;;4991333;28;20409;-92
2021/07/14 00:32:18;;;;;;;13.45;9.88;;;20.80;83.60;;;;;;4990685;28;20109;-91
2021/07/14 00:34:44;;;;;;;12.50;8.30;;;20.80;83.60;;;;;;4992510;28;20118;-93
2021/07/14 00:37:10;;;;;;;14.80;9.73;;;20.80;83.50;;;;;;4992534;28;20033;-92
2021/07/14 00:39:36;;;;;;;12.52;9.65;;;20.80;83.50;;;;;;4992012;28;20508;-92
2021/07/14 00:42:02;;;;;;;11.77;8.15;;;20.80;83.40;;;;;;4992176;28;20026;-92
2021/07/14 00:44:28;;;;;;;13.32;8.77;;;20.80;83.40;;;;;;4992326;28;20026;-92
2021/07/14 00:46:55;;;;;;;11.70;8.30;;;20.80;83.30;;;;;;4992144;28;20059;-92
2021/07/14 00:49:21;;;;;;;11.88;9.75;;;20.80;83.30;;;;;;4992170;28;20022;-92
2021/07/14 00:51:47;;;;;;;12.32;9.07;;;20.80;83.30;;;;;;4992277;28;20273;-92
2021/07/14 00:54:15;;;;;;;11.43;8.75;;;20.80;83.30;;;;;;4992171;28;20470;-91
2021/07/14 00:56:41;;;;;;;12.05;8.80;;;20.80;83.30;;;;;;4991015;28;20058;-92
2021/07/14 00:59:07;;;;;;;12.07;9.00;;;20.80;83.30;;;;;;4991795;28;20064;-92
2021/07/14 01:01:34;;;;;;;11.32;7.97;;;20.70;83.20;;;;;;4990795;28;20037;-93
2021/07/14 01:04:05;;;;;;;12.23;8.45;;;20.70;83.30;;;;;;4992736;28;20022;-94
2021/07/14 01:06:51;;;;;;;12.32;8.57;;;20.70;83.40;;;;;;4992291;28;20049;-93
2021/07/14 01:09:22;;;;;;;13.38;10.13;;;20.70;83.50;;;;;;4991351;28;20018;-92
2021/07/14 01:11:51;;;;;;;14.07;10.27;;;20.70;83.50;;;;;;4991880;28;20037;-93
2021/07/14 01:14:38;;;;;;;12.25;8.73;;;20.60;83.60;;;;;;4992332;28;20386;-93
2021/07/14 01:17:09;;;;;;;12.75;9.60;;;20.60;83.60;;;;;;4991995;28;20117;-93
2021/07/14 01:20:08;;;;;;;14.67;9.43;;;20.60;83.70;;;;;;4991026;28;20122;-93
2021/07/14 01:22:49;;;;;;;9.65;7.55;;;20.60;83.80;;;;;;4991716;28;20277;-93
2021/07/14 01:25:33;;;;;;;11.73;8.45;;;20.60;83.80;;;;;;4991964;28;20113;-92
2021/07/14 01:28:00;;;;;;;11.95;8.90;;;20.60;83.90;;;;;;4992084;28;20034;-92
2021/07/14 01:30:26;;;;;;;12.13;9.07;;;20.60;83.80;;;;;;4992409;28;20053;-92
2021/07/14 01:32:54;;;;;;;14.93;10.85;;;20.60;83.90;;;;;;4991710;28;20097;-92
2021/07/14 01:35:26;;;;;;;12.50;9.40;;;20.50;83.90;;;;;;4991880;28;20026;-92
2021/07/14 01:37:52;;;;;;;;;;;20.50;84.00;;;;;;4992607;28;20022;-92
2021/07/14 01:40:20;;;;;;;10.82;7.78;;;20.50;84.00;;;;;;4991867;28;19912;-92
2021/07/14 01:42:53;;;;;;;13.23;9.30;;;20.50;84.10;;;;;;4991342;28;20370;-93
2021/07/14 01:45:19;;;;;;;11.30;8.35;;;20.50;84.30;;;;;;4991958;28;20034;-94
2021/07/14 01:47:47;;;;;;;13.00;9.52;;;20.50;84.40;;;;;;4991517;28;20381;-93
2021/07/14 01:50:14;;;;;;;11.63;8.30;;;20.40;84.40;;;;;;4991628;28;20026;-93
2021/07/14 01:52:41;;;;;;;11.63;7.70;;;20.40;84.60;;;;;;4993938;28;20109;-93
2021/07/14 01:55:08;;;;;;;11.43;7.72;;;20.40;84.60;;;;;;4995555;28;20406;-92
2021/07/14 01:57:36;;;;;;;11.25;8.05;;;20.40;84.60;;;;;;4995264;28;20030;-93
2021/07/14 02:00:12;;;;;;;11.80;7.78;;;20.40;84.70;;;;;;4994609;28;20022;-93
2021/07/14 02:02:51;;;;;;;9.02;6.38;;;20.40;84.70;;;;;;4993637;28;20049;-94
2021/07/14 02:05:17;;;;;;;9.25;6.30;;;20.40;84.60;;;;;;4994280;28;20121;-94
2021/07/14 02:07:43;;;;;;;8.40;6.57;;;20.40;84.70;;;;;;4994357;28;20108;-94
2021/07/14 02:10:10;;;;;;;10.55;7.57;;;20.40;84.70;;;;;;4993935;28;20099;-94
2021/07/14 02:12:39;;;;;;;9.48;6.30;;;20.40;84.80;;;;;;4994823;28;20437;-96
2021/07/14 02:15:08;;;;;;;12.27;8.10;;;20.50;84.90;;;;;;4995063;28;20014;-95
2021/07/14 02:17:47;;;;;;;13.77;9.52;;;20.40;84.90;;;;;;4994819;28;20030;-91
2021/07/14 02:20:16;;;;;;;11.63;7.68;;;20.40;85.00;;;;;;4993954;28;20033;-91
2021/07/14 02:22:42;;;;;;;10.77;7.22;;;20.40;85.10;;;;;;4993116;28;20023;-91
2021/07/14 02:25:09;;;;;;;9.80;7.35;;;20.40;85.10;;;;;;4994759;28;20035;-92
2021/07/14 02:27:35;;;;;;;10.65;7.65;;;20.40;85.10;;;;;;4994392;28;20113;-91
2021/07/14 02:30:01;;;;;;;11.60;8.40;;;20.40;85.10;;;;;;4994537;28;20097;-92
2021/07/14 02:32:27;;;;;;;11.73;8.13;;;20.40;85.10;;;;;;4994249;28;20488;-94
2021/07/14 02:34:54;;;;;;;12.18;8.65;;;20.40;85.30;;;;;;4994394;28;20127;-92
2021/07/14 02:37:50;;;;;;;13.75;9.43;;;20.40;85.20;;;;;;4994310;28;20023;-92
2021/07/14 02:40:26;;;;;;;13.00;8.52;;;20.40;85.40;;;;;;4993498;28;20023;-92
2021/07/14 02:42:54;;;;;;;10.07;7.30;;;20.30;85.40;;;;;;4992721;28;20030;-93
2021/07/14 02:45:21;;;;;;;12.13;7.68;;;20.40;85.50;;;;;;4994477;28;20025;-93
2021/07/14 02:47:47;;;;;;;11.93;7.93;;;20.40;85.50;;;;;;4994799;28;20019;-93
2021/07/14 02:50:19;;;;;;;12.90;8.77;;;20.40;85.50;;;;;;4994712;28;20030;-93
2021/07/14 02:52:50;;;;;;;12.07;7.97;;;20.30;85.50;;;;;;4994491;28;20038;-93
2021/07/14 02:55:19;;;;;;;12.30;8.00;;;20.30;85.60;;;;;;4993027;28;20022;-93
2021/07/14 02:57:48;;;;;;;13.73;9.20;;;20.30;85.60;;;;;;4992876;28;20034;-92
2021/07/14 03:00:14;;;;;;;14.02;9.00;;;20.30;85.70;;;;;;4994404;28;20186;-92
2021/07/14 03:02:41;;;;;;;12.20;7.80;;;20.30;85.80;;;;;;4992333;28;20053;-92
2021/07/14 03:05:07;;;;;;;13.77;9.95;;;20.30;85.80;;;;;;4993906;28;20027;-92
2021/07/14 03:07:33;;;;;;;13.90;8.85;;;20.30;85.90;;;;;;4994143;28;20049;-93
2021/07/14 03:10:00;;;;;;;16.05;9.82;;;20.30;85.90;;;;;;4992862;28;20474;-92
2021/07/14 03:12:26;;;;;;;11.60;7.70;;;20.30;85.90;;;;;;4993621;28;20029;-93
2021/07/14 03:14:58;;;;;;;17.52;9.98;;;20.30;85.90;;;;;;4994228;28;20114;-94
2021/07/14 03:17:27;;;;;;;12.07;7.83;;;20.30;85.80;;;;;;4994236;28;20040;-92
2021/07/14 03:19:54;;;;;;;12.02;7.85;;;20.40;85.80;;;;;;4993752;28;20481;-92
2021/07/14 03:22:21;;;;;;;15.25;8.93;;;20.30;85.80;;;;;;4992437;28;20050;-93
2021/07/14 03:24:48;;;;;;;12.85;8.77;;;20.30;85.80;;;;;;4993469;28;20057;-92
2021/07/14 03:27:15;;;;;;;13.93;8.60;;;20.30;85.90;;;;;;4992626;28;20061;-92
2021/07/14 03:29:41;;;;;;;11.32;6.65;;;20.30;86.00;;;;;;4993771;28;20014;-92
2021/07/14 03:32:08;;;;;;;14.43;9.10;;;20.30;86.00;;;;;;4992947;28;20080;-92
2021/07/14 03:34:34;;;;;;;16.77;10.73;;;20.30;86.00;;;;;;4992249;28;20022;-91
2021/07/14 03:37:04;;;;;;;16.52;11.27;;;20.30;86.10;;;;;;4992246;28;20031;-92
2021/07/14 03:39:32;;;;;;;14.57;10.75;;;20.20;86.20;;;;;;4992235;28;20014;-91
2021/07/14 03:41:58;;;;;;;14.82;9.05;;;20.20;86.30;;;;;;4991849;28;20018;-90
2021/07/14 03:44:24;;;;;;;15.27;10.77;;;20.20;86.40;;;;;;4993580;28;20078;-92
2021/07/14 03:46:51;;;;;;;13.48;9.27;;;20.10;86.50;;;;;;4993423;28;20027;-92
2021/07/14 03:49:17;;;;;;;16.65;11.60;;;20.10;86.50;;;;;;4993353;28;20023;-92
2021/07/14 03:51:46;;;;;;;13.55;10.15;;;20.10;86.70;;;;;;4992804;28;20084;-92
2021/07/14 03:54:13;;;;;;;15.38;9.75;;;20.10;86.70;;;;;;4993342;28;20037;-92
2021/07/14 03:56:39;;;;;;;16.25;11.52;;;20.10;86.60;;;;;;4992832;28;20053;-93
2021/07/14 03:59:05;;;;;;;13.48;9.32;;;20.10;86.60;;;;;;4993648;28;20026;-92
2021/07/14 04:01:32;;;;;;;12.98;9.45;;;20.10;86.60;;;;;;4992984;28;20034;-93
2021/07/14 04:03:57;;;;;;;16.25;12.00;;;20.10;86.70;;;;;;4993029;28;20081;-93
2021/07/14 04:06:26;;;;;;;13.55;9.52;;;20.10;86.70;;;;;;4991551;28;20046;-93
2021/07/14 04:09:16;;;;;;;16.17;10.65;;;20.10;86.80;;;;;;4992825;28;20018;-93
2021/07/14 04:11:42;;;;;;;12.07;8.38;;;20.00;86.70;;;;;;4992399;28;20027;-92
2021/07/14 04:14:07;;;;;;;17.35;11.38;;;20.00;86.80;;;;;;4992463;28;20022;-93
2021/07/14 04:16:33;;;;;;;10.13;7.85;;;20.00;86.80;;;;;;4992557;28;20058;-93
2021/07/14 04:18:59;;;;;;;13.45;8.45;;;20.00;86.90;;;;;;4992973;28;20026;-93
2021/07/14 04:21:26;;;;;;;11.73;8.05;;;20.00;86.90;;;;;;4992555;28;20026;-92
2021/07/14 04:23:52;;;;;;;10.40;7.50;;;20.00;86.90;;;;;;4992892;28;20022;-93
2021/07/14 04:26:17;;;;;;;11.30;8.00;;;20.00;86.80;;;;;;4991619;28;20117;-92
2021/07/14 04:28:43;;;;;;;14.10;7.97;;;20.00;86.70;;;;;;4991391;28;20032;-92
2021/07/14 04:31:09;;;;;;;14.32;8.07;;;20.00;86.70;;;;;;4992447;28;20018;-93
2021/07/14 04:33:35;;;;;;;10.35;6.85;;;20.00;86.70;;;;;;4992551;28;20077;-92
2021/07/14 04:36:01;;;;;;;9.65;7.30;;;20.00;86.70;;;;;;4991828;28;20371;-93
2021/07/14 04:38:26;;;;;;;10.85;7.63;;;20.00;86.70;;;;;;4992579;28;20022;-93
2021/07/14 04:40:52;;;;;;;13.93;9.43;;;20.00;86.70;;;;;;4993023;28;20038;-93
2021/07/14 04:43:17;;;;;;;11.27;7.80;;;20.00;86.70;;;;;;4992570;28;20023;-94
2021/07/14 04:45:43;;;;;;;10.48;7.85;;;19.90;86.80;;;;;;4992161;28;20045;-95
2021/07/14 04:48:08;;;;;;;10.73;7.22;;;19.90;86.90;;;;;;4998880;28;20023;-94
2021/07/14 04:50:34;;;;;;;9.25;5.90;;;19.90;86.90;;;;;;5007291;28;20038;-94
2021/07/14 04:53:00;;;;;;;8.52;5.75;;;19.90;87.00;;;;;;4993507;28;20386;-95
2021/07/14 04:55:25;;;;;;;11.32;7.70;;;19.90;86.90;;;;;;4996865;28;20041;-94
2021/07/14 04:57:51;;;;;;;10.85;7.93;;;19.90;86.80;;;;;;5004229;28;20021;-95
2021/07/14 05:00:17;;;;;;;9.77;6.55;;;19.90;86.80;;;;;;5002928;28;20029;-95
2021/07/14 05:02:46;;;;;;;10.77;7.40;;;19.90;86.70;;;;;;4997833;28;20449;-95
2021/07/14 05:05:16;;;;;;;12.15;8.68;;;19.90;86.70;;;;;;4994566;28;20374;-93
2021/07/14 05:07:42;;;;;;;9.35;6.38;;;20.00;86.80;;;;;;5005588;28;20034;-93
2021/07/14 05:10:09;;;;;;;11.57;7.75;;;19.90;86.70;;;;;;5008294;28;20519;-93
2021/07/14 05:12:35;;;;;;;11.00;6.93;;;19.90;86.70;;;;;;5005223;28;20469;-92
2021/07/14 05:15:00;;;;;;;10.07;6.85;;;19.90;86.70;;;;;;5011539;28;20084;-93
2021/07/14 05:17:26;;;;;;;9.05;6.75;;;19.90;86.80;;;;;;5014760;28;20093;-94
2021/07/14 05:19:53;;;;;;;11.95;7.60;;;19.90;86.70;;;;;;4997138;28;20117;-95
2021/07/14 05:22:20;;;;;;;10.88;8.30;;;19.90;86.50;;;;;;4995233;28;20029;-93
2021/07/14 05:24:45;;;;;;;8.68;6.50;;;19.90;86.60;;;;;;5014500;28;20377;-93
2021/07/14 05:27:11;;;;;;;9.98;6.90;;;19.90;86.60;;;;;;5000863;28;20045;-93
2021/07/14 05:29:37;;;;;;;9.57;6.07;;;20.00;86.50;;;;;;4998369;28;20037;-93
2021/07/14 05:32:03;;;;;;;10.63;6.35;;;20.00;86.40;;;;;;4997348;28;20027;-93
2021/07/14 05:34:29;;;;;;;9.30;6.53;;;20.00;86.30;;;;;;5014444;28;20112;-95
2021/07/14 05:36:55;;;;;;;9.68;6.90;;;20.00;86.30;;;;;;5016260;28;20064;-94
2021/07/14 05:39:20;;;;;;;10.65;7.57;;;20.00;86.20;;;;;;5007979;28;20030;-92
2021/07/14 05:41:46;;;;;;;9.88;6.85;;;20.00;86.20;;;;;;4995614;28;20493;-95
2021/07/14 05:44:11;;;;;;;11.00;7.60;;;20.00;86.20;;;;;;4995515;28;20038;-95
2021/07/14 05:46:37;;;;;;;10.48;7.63;;;20.00;86.20;;;;;;4995328;28;20037;-95
2021/07/14 05:49:03;;;;;;;10.60;6.88;;;20.00;86.20;;;;;;5000383;28;20113;-91
2021/07/14 05:51:32;;;;;;;8.63;6.30;;;20.00;86.20;;;;;;5014406;28;20052;-92
2021/07/14 05:53:59;;;;;;;9.68;6.82;;;20.00;86.10;;;;;;4998364;28;20039;-92
2021/07/14 05:56:24;;;;;;;7.68;5.88;;;20.10;86.00;;;;;;4995240;28;20034;-92
2021/07/14 05:58:50;;;;;;;8.23;6.35;;;20.20;86.00;;;;;;4994681;28;20523;-93
2021/07/14 06:01:15;;;;;;;7.90;6.28;;;20.20;85.80;;;;;;4996392;28;20038;-93
2021/07/14 06:03:41;;;;;;;7.75;5.80;;;20.20;85.70;;;;;;4996308;28;20027;-93
2021/07/14 06:06:07;;;;;;;9.32;6.45;;;20.20;85.70;;;;;;4996206;28;20026;-94
2021/07/14 06:08:33;;;;;;;11.45;8.30;;;20.20;85.60;;;;;;4994304;28;20057;-94
2021/07/14 06:10:58;;;;;;;10.88;7.65;;;20.20;85.60;;;;;;5014993;28;20061;-94
2021/07/14 06:13:24;;;;;;;11.75;9.07;;;20.20;85.50;;;;;;5015204;28;20030;-93
2021/07/14 06:15:49;;;;;;;9.65;7.25;;;20.20;85.50;;;;;;5013929;28;20025;-93
2021/07/14 06:18:15;;;;;;;8.60;6.00;;;20.20;85.60;;;;;;5015741;28;20109;-93
2021/07/14 06:20:41;;;;;;;9.10;6.97;;;20.20;85.50;;;;;;4996819;28;20041;-93
2021/07/14 06:23:07;;;;;;;10.57;7.43;;;20.30;85.50;;;;;;4994443;28;20095;-94
2021/07/14 06:25:33;;;;;;;12.38;9.15;;;20.30;85.40;;;;;;4995421;28;20485;-94
2021/07/14 06:28:00;;;;;;;8.40;6.15;;;20.30;85.30;;;;;;5003223;28;20022;-94
2021/07/14 06:30:26;;;;;;;8.93;7.45;;;20.30;85.30;;;;;;5014494;28;20029;-95
2021/07/14 06:32:52;;;;;;;10.63;7.95;;;20.50;85.20;;;;;;5013865;28;20022;-96
2021/07/14 06:35:19;;;;;;;13.90;9.93;;;20.50;85.10;;;;;;5015281;28;20456;-93
2021/07/14 06:37:46;;;;;;;10.35;8.30;;;20.50;84.90;;;;;;5013577;28;20017;-91
2021/07/14 06:40:13;;;;;;;10.38;8.23;;;20.50;84.90;;;;;;5015992;28;20033;-95
2021/07/14 06:42:39;;;;;;;7.82;6.05;;;20.60;84.80;;;;;;5004402;28;20068;-94
2021/07/14 06:45:10;;;;;;;6.95;4.60;;;20.50;84.60;;;;;;4995108;28;20081;-94
2021/07/14 06:47:36;;;;;;;9.60;7.07;;;20.60;84.70;;;;;;4995493;28;20037;-94
2021/07/14 06:50:07;;;;;;;11.20;8.13;;;20.60;84.50;;;;;;4994416;28;20074;-94
2021/07/14 06:52:33;;;;;;;9.05;7.53;;;20.60;84.40;;;;;;5003931;28;20057;-93
2021/07/14 06:57:34;;;;;;;7.88;6.70;;;20.60;84.40;;;;;;5130852;22;20520;-96
2021/07/14 07:00:00;;;;;;;9.85;7.63;;;20.70;84.30;;;;;;5041736;28;20018;-94
2021/07/14 07:02:39;;;;;;;9.07;6.70;;;20.70;84.20;;;;;;5017409;28;20539;-96
2021/07/14 07:05:19;;;;;;;11.13;8.13;;;20.70;84.10;;;;;;5026183;28;20038;-94
2021/07/14 07:08:05;;;;;;;7.75;6.07;;;20.80;84.10;;;;;;5033483;28;20041;-95
2021/07/14 07:10:34;;;;;;;10.10;7.32;;;20.70;84.00;;;;;;5035999;28;20077;-94
2021/07/14 07:13:15;;;;;;;12.27;8.07;;;20.70;84.00;;;;;;5014181;28;20445;-93
2021/07/14 07:21:20;;;;;;;11.40;9.00;;;20.70;84.00;;;;;;5019649;28;20043;-96
2021/07/14 07:26:33;;;;;;;10.98;8.68;;;20.60;84.20;;;;;;5571358;22;20045;-95
2021/07/14 07:29:05;;;;;;;11.32;8.05;;;20.60;84.10;;;;;;5071481;22;20199;-96
2021/07/14 07:31:34;;;;;;;9.32;6.72;;;20.60;84.10;;;;;;5018455;28;20022;-96
2021/07/14 07:33:59;;;;;;;11.70;8.00;;;20.60;84.30;;;;;;5216810;22;20034;-96
2021/07/14 07:36:26;;;;;;;10.32;7.95;;;20.60;84.20;;;;;;5034226;28;20020;-92
2021/07/14 07:39:27;;;;;;;8.98;7.20;;;20.60;84.10;;;;;;5040408;28;20081;-96
2021/07/14 07:41:54;;;;;;;11.17;8.23;;;20.60;84.10;;;;;;5025405;28;20088;-96
2021/07/14 07:47:05;;;;;;;13.23;10.35;;;20.60;84.00;;;;;;5017480;28;20046;-96
2021/07/14 07:49:42;;;;;;;;;;;;;;;;;;;;;
2021/07/14 07:52:12;;;;;;;13.45;8.65;;;20.60;84.00;;;;;;5470322;23;20136;-94
2021/07/14 07:54:38;;;;;;;12.18;8.68;;;20.60;84.00;;;;;;5033222;28;20480;-96
2021/07/14 07:57:05;;;;;;;11.90;8.27;;;20.60;84.00;;;;;;5033216;28;20033;-93
2021/07/14 07:59:30;;;;;;;16.38;10.85;;;20.60;84.00;;;;;;5032581;28;20106;-95
2021/07/14 08:05:19;;;;;;;13.33;9.00;;;20.50;84.00;;;;;;5025709;28;20063;-93
2021/07/14 08:07:45;;;;;;;12.88;8.77;;;20.50;84.10;;;;;;5026085;28;20303;-92
2021/07/14 08:10:32;;;;;;;15.15;9.30;;;20.50;84.10;;;;;;5025968;28;20018;-91
2021/07/14 08:57:46;;;;;;;13.40;8.30;;;20.70;83.40;;;;;;5032749;28;20045;-95
2021/07/14 09:01:10;;;;;;;11.30;8.35;;;20.70;83.50;;;;;;5042678;28;20057;-91
2021/07/14 09:10:50;;;;;;;;;;;;;;;;;;;;;
2021/07/14 09:20:30;;;;;;;10.48;7.97;;;20.80;83.50;;;;;;4857748;29;20089;-92
2021/07/14 09:23:45;;;;;;;11.18;8.45;;;20.80;83.50;;;;;;4856983;29;20048;-91
2021/07/14 09:30:26;;;;;;;13.55;8.90;;;20.90;83.40;;;;;;4862666;29;20157;-92
2021/07/14 09:33:31;;;;;;;12.48;8.35;;;20.80;83.50;;;;;;5000053;28;20477;-92
2021/07/14 09:36:41;;;;;;;12.00;8.40;;;20.90;83.60;;;;;;4951246;29;20028;-88
2021/07/14 09:39:41;;;;;;;14.90;9.90;;;20.90;83.50;;;;;;4930658;29;20130;-92
2021/07/14 09:42:14;;;;;;;12.18;8.70;;;20.90;84.10;;;;;;5020767;23;20058;-96
2021/07/14 09:44:48;;;;;;;11.82;8.93;;;20.90;83.40;;;;;;5019453;28;20014;-95
2021/07/14 09:47:22;;;;;;;11.77;8.32;;;21.00;83.40;;;;;;5010686;28;20040;-96
2021/07/14 09:49:51;;;;;;;12.90;9.35;;;21.00;83.40;;;;;;4998955;28;20026;-95
2021/07/14 09:52:22;;;;;;;14.82;11.10;;;21.10;83.30;;;;;;5005926;28;20116;-92
2021/07/14 09:54:48;;;;;;;14.93;10.48;;;21.10;83.30;;;;;;5000062;28;20030;-94
2021/07/14 09:57:17;;;;;;;12.70;10.27;;;21.00;83.30;;;;;;5009531;28;20018;-93
2021/07/14 09:59:45;;;;;;;16.08;11.07;;;21.00;83.40;;;;;;4992705;28;20037;-95
2021/07/14 10:03:12;;;;;;;;;;;;;;;;;;;;;
2021/07/14 10:06:18;;;;;;;15.30;10.75;;;21.10;83.40;;;;;;4969102;28;20042;-93
2021/07/14 10:08:45;;;;;;;16.27;10.60;;;21.10;83.40;;;;;;5011769;28;20125;-95
2021/07/14 10:14:11;;;;;;;12.15;9.52;;;21.20;83.30;;;;;;5999536;23;21083;-92
2021/07/14 10:19:36;;;;;;;16.80;10.53;;;21.20;83.20;;;;;;5344368;22;20068;-93
2021/07/14 10:22:08;;;;;;;17.33;10.95;;;21.20;83.20;;;;;;4994816;28;20038;-94
2021/07/14 10:27:16;;;;;;;13.25;10.13;;;21.20;83.20;;;;;;5025037;22;20849;-93
2021/07/14 10:29:45;;;;;;;18.25;12.18;;;21.10;83.20;;;;;;4995007;28;20019;-94
2021/07/14 10:32:11;;;;;;;14.95;11.70;;;21.20;83.20;;;;;;4998717;28;20508;-95
2021/07/14 10:34:37;;;;;;;15.65;10.50;;;21.10;83.20;;;;;;4989779;28;20106;-95
2021/07/14 10:40:09;;;;;;;12.05;7.55;;;21.10;83.20;;;;;;4998835;28;20054;-95
2021/07/14 10:42:58;;;;;;;14.48;9.73;;;21.20;83.30;;;;;;4994715;28;20025;-94
2021/07/14 10:46:01;;;;;;;18.23;12.60;;;21.10;83.20;;;;;;4998420;28;20089;-94
2021/07/14 12:52:15;;;;;;;;;;;;;;;;;;;;;
2021/07/14 13:16:01;;;;;;;10.68;8.13;;;21.60;82.20;;;;;;5376971;22;20053;-94
2021/07/14 13:18:37;;;;;;;10.85;8.15;;;21.70;82.00;;;;;;4983955;28;20090;-91
2021/07/14 13:21:03;;;;;;;10.95;8.07;;;21.80;81.80;;;;;;5009490;28;20077;-92
2021/07/14 13:23:33;;;;;;;13.65;10.30;;;21.90;81.70;;;;;;4993824;28;20018;-87
2021/07/14 13:25:59;;;;;;;13.90;10.95;;;21.90;81.40;;;;;;4975075;28;20049;-89
2021/07/14 13:28:27;;;;;;;12.13;9.50;;;21.90;81.20;;;;;;4990015;28;20027;-88
2021/07/14 13:31:10;;;;;;;11.60;8.20;;;22.00;81.20;;;;;;4972624;28;21409;-88
2021/07/14 13:33:41;;;;;;;10.65;8.32;;;22.10;81.00;;;;;;4955643;28;20115;-92
2021/07/14 13:36:16;;;;;;;9.30;7.65;;;22.10;80.90;;;;;;4990649;28;20035;-92
2021/07/14 13:38:48;;;;;;;9.13;8.13;;;22.20;80.80;;;;;;4967462;28;20023;-90
2021/07/14 13:41:15;;;;;;;8.60;6.97;;;22.20;80.60;;;;;;4969996;28;20054;-91
2021/07/14 13:44:01;;;;;;;11.65;8.65;;;22.30;80.60;;;;;;4973802;28;20536;-92
2021/07/14 13:46:52;;;;;;;10.75;8.77;;;22.30;80.50;;;;;;5011643;28;20038;-92
2021/07/14 13:49:21;;;;;;;9.52;8.07;;;22.40;80.40;;;;;;4971115;28;20125;-91
2021/07/14 13:51:58;;;;;;;9.75;8.48;;;22.40;80.30;;;;;;4971156;28;20029;-91
2021/07/14 13:54:29;;;;;;;7.82;7.03;;;22.40;80.30;;;;;;4976828;28;20057;-93
2021/07/14 13:57:15;;;;;;;13.38;9.35;;;22.40;80.30;;;;;;4979031;28;20080;-92
2021/07/14 13:59:49;;;;;;;10.50;8.18;;;22.40;80.00;;;;;;4993063;28;20050;-93
2021/07/14 14:02:24;;;;;;;11.55;8.95;;;22.40;80.10;;;;;;4971770;28;20030;-92
2021/07/14 14:05:10;;;;;;;11.10;9.77;;;22.40;80.00;;;;;;4994198;28;20129;-92
2021/07/14 14:07:38;;;;;;;9.20;7.93;;;22.40;79.90;;;;;;4978141;28;20026;-92
2021/07/14 14:10:15;;;;;;;9.93;8.35;;;22.40;80.00;;;;;;4972206;28;20051;-92
2021/07/14 14:16:12;;;;;;;9.05;7.53;;;22.50;79.60;;;;;;4932953;28;20125;-91
2021/07/14 14:18:38;;;;;;;9.57;8.43;;;22.60;79.50;;;;;;4997482;28;20129;-92
2021/07/14 14:21:12;;;;;;;9.75;8.75;;;22.70;79.40;;;;;;4994946;28;20037;-93
2021/07/14 14:23:38;;;;;;;10.02;8.20;;;22.80;79.10;;;;;;4992660;28;20597;-89
2021/07/14 14:26:04;;;;;;;10.63;8.23;;;22.90;78.80;;;;;;4992191;28;20084;-91
2021/07/14 14:28:30;;;;;;;10.57;8.35;;;23.00;78.60;;;;;;5001291;28;20089;-92
2021/07/14 14:31:00;;;;;;;11.80;8.73;;;23.20;78.10;;;;;;4989509;28;20019;-91
2021/07/14 14:34:02;;;;;;;;;;;;;;;;;;;;;
2021/07/14 14:36:47;;;;;;;;;;;;;;;;;;;;;
2021/07/14 14:39:28;;;;;;;;;;;;;;;;;;;;;
2021/07/14 14:42:46;;;;;;;10.07;7.50;;;23.30;77.20;;;;;;4981055;28;20037;-91
2021/07/14 14:45:18;;;;;;;9.65;7.65;;;23.30;77.20;;;;;;4976302;28;20074;-94
2021/07/14 14:59:07;;;;;;;11.23;8.13;;;23.20;77.40;;;;;;5196007;23;20076;-92
2021/07/14 15:01:32;;;;;;;8.07;7.00;;;23.20;77.20;;;;;;5012816;28;20044;-91
2021/07/14 15:03:58;;;;;;;8.88;6.90;;;23.40;77.20;;;;;;5020354;28;20029;-93
2021/07/14 15:06:24;;;;;;;10.38;8.48;;;23.40;76.90;;;;;;5032734;28;20033;-92
2021/07/14 15:08:49;;;;;;;9.07;6.82;;;23.40;76.60;;;;;;5014066;28;20022;-91
2021/07/14 15:11:15;;;;;;;9.32;8.10;;;23.40;76.70;;;;;;5017166;28;20032;-91
2021/07/14 15:13:42;;;;;;;11.63;8.70;;;23.40;76.60;;;;;;5026193;28;20018;-88
2021/07/14 15:16:07;;;;;;;9.35;7.78;;;23.20;76.70;;;;;;5021319;28;20070;-91
2021/07/14 15:19:05;;;;;;;10.98;7.78;;;23.20;77.00;;;;;;5027209;28;20469;-93
2021/07/14 15:21:51;;;;;;;10.57;7.40;;;23.10;77.20;;;;;;5004547;28;20040;-91
2021/07/14 15:24:31;;;;;;;10.10;8.27;;;23.10;77.40;;;;;;5022188;28;20030;-93
2021/07/14 15:29:54;;;;;;;8.52;6.85;;;22.90;77.60;;;;;;5029498;28;20045;-95
2021/07/14 15:40:56;;;;;;;10.93;8.27;;;22.90;78.80;;;;;;5008966;28;20046;-89
2021/07/14 15:43:21;;;;;;;10.88;8.77;;;22.90;78.10;;;;;;5012327;28;20026;-88
2021/07/14 15:45:47;;;;;;;9.85;8.50;;;22.80;78.20;;;;;;5011393;28;20033;-87
2021/07/14 15:48:12;;;;;;;11.35;8.02;;;22.80;78.30;;;;;;5010237;28;20484;-87
2021/07/14 15:50:38;;;;;;;11.15;8.95;;;22.80;78.40;;;;;;5009544;28;20104;-87
2021/07/14 15:53:07;;;;;;;9.32;7.82;;;22.70;78.50;;;;;;5005472;28;20342;-87
2021/07/14 15:55:34;;;;;;;8.95;7.85;;;22.70;78.60;;;;;;5012143;28;20041;-90
2021/07/14 15:58:07;;;;;;;9.05;7.00;;;22.70;78.60;;;;;;5009560;28;20022;-90
2021/07/14 16:00:33;;;;;;;8.98;7.78;;;22.80;78.60;;;;;;5011004;28;20029;-91
2021/07/14 16:03:02;;;;;;;12.32;8.30;;;22.80;78.40;;;;;;5011472;28;20018;-87
2021/07/14 16:05:28;;;;;;;8.55;6.88;;;22.90;78.40;;;;;;5006500;28;20097;-90
2021/07/14 16:07:54;;;;;;;10.43;8.90;;;22.80;78.40;;;;;;5011541;28;20022;-89
2021/07/14 16:10:23;;;;;;;10.43;8.18;;;22.80;78.40;;;;;;5019549;28;20029;-88
2021/07/14 16:12:49;;;;;;;11.13;7.55;;;22.80;78.60;;;;;;5009790;28;20454;-88
2021/07/14 16:15:15;;;;;;;9.32;7.13;;;22.80;78.60;;;;;;5011835;28;20113;-88
2021/07/14 16:17:41;;;;;;;8.57;7.07;;;22.90;78.60;;;;;;5012347;28;20026;-89
2021/07/14 16:20:08;;;;;;;10.18;8.15;;;22.80;78.70;;;;;;5010587;28;20066;-87
2021/07/14 16:22:34;;;;;;;9.73;8.15;;;22.80;79.00;;;;;;5010405;28;20110;-88
2021/07/14 16:25:01;;;;;;;8.70;7.60;;;22.80;79.10;;;;;;5006036;28;20045;-89
2021/07/14 16:27:27;;;;;;;13.15;8.60;;;22.70;79.20;;;;;;5013626;28;20038;-90
2021/07/14 16:30:10;;;;;;;;;;;;;;;;;;;;;
2021/07/14 16:37:13;;;;;;;10.57;8.52;;;22.60;79.60;;;;;;4991983;28;20035;-91
2021/07/14 16:39:57;;;;;;;;;;;;;;;;;;;;;
2021/07/14 16:43:13;;;;;;;;;;;;;;;;;;;;;
2021/07/14 16:46:18;;;;;;;8.93;7.85;;;22.40;80.10;;;;;;5017537;28;20034;-91
2021/07/14 16:59:20;;;;;;;;;;;;;;;;;;;;;
2021/07/14 17:01:56;;;;;;;11.52;8.25;;;22.40;80.60;;;;;;5014402;28;20022;-88
2021/07/14 17:04:21;;;;;;;11.20;8.48;;;22.30;80.70;;;;;;5005525;28;20014;-88
2021/07/14 17:06:48;;;;;;;8.40;7.50;;;22.30;80.80;;;;;;5003190;28;20035;-89
2021/07/14 17:09:14;;;;;;;10.65;8.90;;;22.30;80.80;;;;;;5028025;22;20069;-89
2021/07/14 17:11:46;;;;;;;10.77;8.30;;;22.30;80.80;;;;;;4999216;28;20041;-89
2021/07/14 17:14:12;;;;;;;;;;;22.30;81.00;;;;;;5007506;28;20575;-88
2021/07/14 17:16:37;;;;;;;12.05;9.82;;;22.20;81.00;;;;;;5010838;28;19906;-89
2021/07/14 17:19:36;;;;;;;10.90;7.65;;;22.20;81.40;;;;;;5008962;28;20026;-91
2021/07/14 17:22:46;;;;;;;10.05;7.80;;;22.10;81.50;;;;;;4996675;28;20073;-89
2021/07/14 17:25:10;;;;;;;9.40;7.65;;;22.10;81.70;;;;;;5007839;28;20485;-89
2021/07/14 17:31:17;;;;;;;8.43;7.53;;;21.90;81.90;;;;;;5008213;28;20077;-91
2021/07/14 17:37:18;;;;;;;10.80;7.47;;;21.80;82.30;;;;;;4974389;28;20174;-90
2021/07/14 17:42:35;;;;;;;8.00;6.53;;;21.80;82.80;;;;;;5007758;28;20205;-88
2021/07/14 17:45:01;;;;;;;11.23;8.98;;;21.70;82.80;;;;;;5015500;28;20507;-93
2021/07/14 17:50:04;;;;;;;8.80;6.95;;;21.60;83.20;;;;;;5555714;23;20587;-92
2021/07/14 17:52:30;;;;;;;10.65;7.20;;;21.60;83.40;;;;;;5001681;28;20029;-92
2021/07/14 17:54:58;;;;;;;9.40;7.22;;;21.50;83.50;;;;;;5025870;28;20097;-93
2021/07/14 17:57:23;;;;;;;9.23;7.03;;;21.50;83.60;;;;;;5021871;28;20037;-92
2021/07/14 17:59:49;;;;;;;8.98;5.82;;;21.50;83.80;;;;;;5016662;28;20030;-93
2021/07/14 18:02:15;;;;;;;8.05;6.18;;;21.40;83.90;;;;;;5020530;28;20038;-91
2021/07/14 18:04:45;;;;;;;8.63;6.00;;;21.50;84.10;;;;;;5013931;28;20014;-92
2021/07/14 18:07:11;;;;;;;8.75;6.40;;;21.40;84.20;;;;;;5010849;28;20735;-93